Centerville, Massachusetts
Current Conditions -  °F | °C
As of 10:56 AM on Wednesday 26 Nov 2014 (Local Time) from KHYA Reporting Station
Light Rain Light Rain  
Wind Chill: 40°   Ceiling: 2200
Heat Index: 44°   Visibility: 4mi
Dew Point: 42°   Wind: 8mph
Humidity: 93%   Direction: 50°NE
Pressure: 30.09"   Gusts: NA
Location:  41.65°N, 70.35°W
Report Text: KHYA 261556Z 05007KT 4SM -RA BR FEW017 BKN022 OVC029 07/06 A3009 RMK AO2 SLP191 P0004 T00670056
Loading
Personal Weather Stations






























Interactive Weather Map New forecast layout! Learn more

10-Day Weather Forecast

Advertisements
Track Severe Weather on mobile